Aviation Digital Data Service (ADDS)

Output produced by METARs form (2104 UTC 21 October 2017)
found at http://aviationweather.gov/adds/metars/
 
KIAG 212102Z 2121/2218 20007KT P6SM BKN200 
     FM220000 19004KT P6SM BKN220 
     FM220800 18008KT P6SM BKN220